Time,TemperatureF,DewpointF,PressureIn,WindDirection,WindDirectionDegrees,WindSpeedMPH,WindSpeedGustMPH,Humidity,HourlyPrecipIn,Conditions,Clouds,dailyrainin,SoftwareType,DateUTC
2013-05-16 00:22:00,52.0,43.0,-100.00,NE,55,13.0,21.0,72,0.00,,,0.00,,2013-05-16 06:22:00,
2013-05-16 00:33:00,52.0,43.0,-100.00,NE,55,13.0,21.0,72,0.00,,,0.00,,2013-05-16 06:33:00,
2013-05-16 00:43:00,52.0,43.0,-100.00,NE,55,13.0,21.0,72,0.00,,,0.00,,2013-05-16 06:43:00,
2013-05-16 00:51:00,51.0,43.0,-100.00,ENE,60,9.0,21.0,74,0.00,,,0.00,,2013-05-16 06:51:00,
2013-05-16 01:24:00,51.0,43.0,-100.00,ENE,60,9.0,21.0,74,0.00,,,0.00,,2013-05-16 07:24:00,
2013-05-16 01:34:00,51.0,43.0,-100.00,ENE,60,9.0,21.0,74,0.00,,,0.00,,2013-05-16 07:34:00,
2013-05-16 01:44:00,51.0,43.0,-100.00,ENE,60,9.0,21.0,74,0.00,,,0.00,,2013-05-16 07:44:00,
2013-05-16 01:51:00,50.0,42.0,-100.00,ENE,60,8.0,17.0,75,0.00,,,0.00,,2013-05-16 07:51:00,
2013-05-16 02:23:00,50.0,42.0,-100.00,ENE,60,8.0,17.0,75,0.00,,,0.00,,2013-05-16 08:23:00,
2013-05-16 02:34:00,50.0,42.0,-100.00,ENE,60,8.0,17.0,75,0.00,,,0.00,,2013-05-16 08:34:00,
2013-05-16 02:44:00,50.0,42.0,-100.00,ENE,60,8.0,17.0,75,0.00,,,0.00,,2013-05-16 08:44:00,
2013-05-16 02:51:00,49.0,43.0,-100.00,ENE,65,15.0,24.0,79,0.00,,,0.00,,2013-05-16 08:51:00,
2013-05-16 03:14:00,49.0,43.0,-100.00,ENE,65,15.0,24.0,79,0.00,,,0.00,,2013-05-16 09:14:00,
2013-05-16 03:24:00,49.0,43.0,-100.00,ENE,65,15.0,24.0,79,0.00,,,0.00,,2013-05-16 09:24:00,
2013-05-16 03:35:00,49.0,43.0,-100.00,ENE,65,15.0,24.0,79,0.00,,,0.00,,2013-05-16 09:35:00,
2013-05-16 03:45:00,49.0,43.0,-100.00,ENE,65,15.0,24.0,79,0.00,,,0.00,,2013-05-16 09:45:00,
2013-05-16 03:51:00,50.0,43.0,-100.00,ENE,65,14.0,22.0,76,0.00,,,0.00,,2013-05-16 09:51:00,
2013-05-16 04:24:00,50.0,43.0,-100.00,ENE,65,14.0,22.0,76,0.00,,,0.00,,2013-05-16 10:24:00,
2013-05-16 04:35:00,50.0,43.0,-100.00,ENE,65,14.0,22.0,76,0.00,,,0.00,,2013-05-16 10:35:00,
2013-05-16 04:45:00,50.0,43.0,-100.00,ENE,65,14.0,22.0,76,0.00,,,0.00,,2013-05-16 10:45:00,
2013-05-16 04:51:00,47.0,42.0,-100.00,ENE,71,9.0,20.0,83,0.00,,,-99.99,,2013-05-16 10:51:00,
2013-05-16 05:14:00,47.0,42.0,-100.00,ENE,71,9.0,20.0,83,0.00,,,-99.99,,2013-05-16 11:14:00,
2013-05-16 05:25:00,47.0,42.0,-100.00,ENE,71,9.0,20.0,83,0.00,,,-99.99,,2013-05-16 11:25:00,
2013-05-16 05:35:00,47.0,42.0,-100.00,ENE,71,9.0,20.0,83,0.00,,,-99.99,,2013-05-16 11:35:00,
2013-05-16 05:46:00,47.0,42.0,-100.00,ENE,71,9.0,20.0,83,0.00,,,-99.99,,2013-05-16 11:46:00,
2013-05-16 05:51:00,47.0,42.0,-100.00,ENE,63,15.0,30.0,84,0.00,,,0.00,,2013-05-16 11:51:00,
2013-05-16 06:13:00,47.0,42.0,-100.00,ENE,63,15.0,30.0,84,0.00,,,0.00,,2013-05-16 12:13:00,
2013-05-16 06:23:00,47.0,42.0,-100.00,ENE,63,15.0,30.0,84,0.00,,,0.00,,2013-05-16 12:23:00,
2013-05-16 06:34:00,47.0,42.0,-100.00,ENE,63,15.0,30.0,84,0.00,,,0.00,,2013-05-16 12:34:00,
2013-05-16 06:45:00,47.0,42.0,-100.00,ENE,63,15.0,30.0,84,0.00,,,0.00,,2013-05-16 12:45:00,
2013-05-16 06:51:00,47.0,42.0,-100.00,ENE,61,12.0,24.0,83,0.00,,,0.00,,2013-05-16 12:51:00,
2013-05-16 07:12:00,47.0,42.0,-100.00,ENE,61,12.0,24.0,83,0.00,,,0.00,,2013-05-16 13:12:00,
2013-05-16 07:26:00,47.0,42.0,-100.00,ENE,61,12.0,24.0,83,0.00,,,0.00,,2013-05-16 13:26:00,
2013-05-16 07:35:00,47.0,42.0,-100.00,ENE,61,12.0,24.0,83,0.00,,,0.00,,2013-05-16 13:35:00,
2013-05-16 07:43:00,47.0,42.0,-100.00,ENE,61,12.0,24.0,83,0.00,,,0.00,,2013-05-16 13:43:00,
2013-05-16 07:51:00,48.0,42.0,-100.00,ENE,70,14.0,23.0,80,0.00,,,0.00,,2013-05-16 13:51:00,
2013-05-16 08:15:00,48.0,42.0,-100.00,ENE,70,14.0,23.0,80,0.00,,,0.00,,2013-05-16 14:15:00,
2013-05-16 08:23:00,48.0,42.0,-100.00,ENE,70,14.0,23.0,80,0.00,,,0.00,,2013-05-16 14:23:00,
2013-05-16 08:37:00,48.0,42.0,-100.00,ENE,70,14.0,23.0,80,0.00,,,0.00,,2013-05-16 14:37:00,
2013-05-16 08:47:00,48.0,42.0,-100.00,ENE,70,14.0,23.0,80,0.00,,,0.00,,2013-05-16 14:47:00,
2013-05-16 08:51:00,52.0,43.0,-100.00,ENE,58,13.0,23.0,71,0.00,,,0.00,,2013-05-16 14:51:00,
2013-05-16 09:17:00,52.0,43.0,-100.00,ENE,58,13.0,23.0,71,0.00,,,0.00,,2013-05-16 15:17:00,
2013-05-16 09:28:00,52.0,43.0,-100.00,ENE,58,13.0,23.0,71,0.00,,,0.00,,2013-05-16 15:28:00,
2013-05-16 09:40:00,52.0,43.0,-100.00,ENE,58,13.0,23.0,71,0.00,,,0.00,,2013-05-16 15:40:00,
2013-05-16 09:50:00,52.0,43.0,-100.00,ENE,58,13.0,23.0,71,0.00,,,0.00,,2013-05-16 15:50:00,
2013-05-16 09:51:00,55.0,42.0,-100.00,ENE,70,9.0,23.0,62,0.00,,,0.00,,2013-05-16 15:51:00,
2013-05-16 10:30:00,55.0,42.0,-100.00,ENE,70,9.0,23.0,62,0.00,,,0.00,,2013-05-16 16:30:00,
2013-05-16 10:40:00,55.0,-99.9,-100.00,ENE,70,9.0,23.0,62,0.00,,,0.00,,2013-05-16 16:40:00,
2013-05-16 10:50:00,55.0,42.0,-100.00,ENE,70,9.0,23.0,62,0.00,,,0.00,,2013-05-16 16:50:00,
2013-05-16 10:51:00,53.0,-99.9,-100.00,WSW,258,7.0,16.0,71,0.00,,,0.00,,2013-05-16 16:51:00,
2013-05-16 11:30:00,53.0,44.0,-100.00,WSW,258,7.0,16.0,71,0.00,,,0.00,,2013-05-16 17:30:00,
2013-05-16 11:40:00,53.0,44.0,-100.00,WSW,258,7.0,16.0,71,0.00,,,0.00,,2013-05-16 17:40:00,
2013-05-16 11:50:00,53.0,-99.9,-100.00,WSW,258,7.0,16.0,71,0.00,,,0.00,,2013-05-16 17:50:00,
2013-05-16 11:51:00,-999.0,-99.9,-100.00,WNW,294,4.0,13.0,54,0.00,,,0.00,,2013-05-16 17:51:00,
2013-05-16 12:30:00,-999.0,-99.9,-100.00,WNW,294,4.0,13.0,54,0.00,,,0.00,,2013-05-16 18:30:00,
2013-05-16 12:40:00,-999.0,-99.9,-100.00,WNW,294,4.0,13.0,54,0.00,,,0.00,,2013-05-16 18:40:00,
2013-05-16 12:50:00,-999.0,-99.9,-100.00,WNW,294,4.0,13.0,54,0.00,,,0.00,,2013-05-16 18:50:00,
2013-05-16 12:51:00,60.0,-99.9,-100.00,ENE,74,8.0,16.0,49,0.00,,,0.00,,2013-05-16 18:51:00,
2013-05-16 13:30:00,60.0,41.0,-100.00,ENE,74,8.0,16.0,49,0.00,,,0.00,,2013-05-16 19:30:00,
2013-05-16 13:40:00,60.0,-99.9,-100.00,ENE,74,8.0,16.0,49,0.00,,,0.00,,2013-05-16 19:40:00,
2013-05-16 13:50:00,-999.0,-99.9,-100.00,ENE,74,8.0,16.0,49,0.00,,,0.00,,2013-05-16 19:50:00,
2013-05-16 13:51:00,63.0,40.0,-100.00,ENE,74,8.0,15.0,43,0.00,,,0.00,,2013-05-16 19:51:00,
2013-05-16 14:20:00,63.0,-99.9,-100.00,ENE,74,8.0,15.0,43,0.00,,,0.00,,2013-05-16 20:20:00,
2013-05-16 14:30:00,63.0,40.0,-100.00,ENE,74,8.0,15.0,43,0.00,,,0.00,,2013-05-16 20:30:00,
2013-05-16 14:40:00,-999.0,-99.9,-100.00,ENE,74,8.0,15.0,43,0.00,,,0.00,,2013-05-16 20:40:00,
2013-05-16 14:50:00,63.0,40.0,-100.00,ENE,74,8.0,15.0,43,0.00,,,0.00,,2013-05-16 20:50:00,
2013-05-16 14:51:00,-999.0,-99.9,-100.00,West,277,4.0,16.0,33,0.00,,,0.00,,2013-05-16 20:51:00,
2013-05-16 15:29:00,66.0,36.0,-100.00,West,277,4.0,16.0,33,0.00,,,0.00,,2013-05-16 21:29:00,
2013-05-16 15:38:00,66.0,36.0,-100.00,West,277,4.0,16.0,33,0.00,,,0.00,,2013-05-16 21:38:00,
2013-05-16 15:50:00,66.0,-99.9,-100.00,West,277,4.0,16.0,33,0.00,,,0.00,,2013-05-16 21:50:00,
2013-05-16 15:51:00,62.0,37.0,-100.00,NNW,328,8.0,23.0,39,0.00,,,0.00,,2013-05-16 21:51:00,
2013-05-16 16:20:00,62.0,37.0,-100.00,NNW,328,8.0,23.0,39,0.00,,,0.00,,2013-05-16 22:20:00,
2013-05-16 16:30:00,62.0,37.0,-100.00,NNW,328,8.0,23.0,39,0.00,,,0.00,,2013-05-16 22:30:00,
2013-05-16 16:40:00,62.0,37.0,-100.00,NNW,328,8.0,23.0,39,0.00,,,0.00,,2013-05-16 22:40:00,
2013-05-16 16:50:00,62.0,37.0,-100.00,NNW,328,8.0,23.0,39,0.00,,,0.00,,2013-05-16 22:50:00,
2013-05-16 16:51:00,51.0,42.0,-100.00,ESE,117,6.0,30.0,70,0.02,,,0.02,,2013-05-16 22:51:00,
2013-05-16 17:16:00,51.0,42.0,-100.00,ESE,117,6.0,30.0,70,0.02,,,0.02,,2013-05-16 23:16:00,
2013-05-16 17:24:00,51.0,42.0,-100.00,ESE,117,6.0,30.0,70,0.02,,,0.02,,2013-05-16 23:24:00,
2013-05-16 17:34:00,51.0,42.0,-100.00,ESE,117,6.0,30.0,70,0.02,,,0.02,,2013-05-16 23:34:00,
2013-05-16 17:45:00,51.0,42.0,-100.00,ESE,117,6.0,30.0,70,0.02,,,0.02,,2013-05-16 23:45:00,
2013-05-16 17:51:00,54.0,43.0,-100.00,South,187,3.0,11.0,67,0.01,,,0.03,,2013-05-16 23:51:00,
2013-05-16 18:13:00,54.0,43.0,-100.00,South,187,3.0,11.0,67,0.01,,,0.03,,2013-05-17 00:13:00,
2013-05-16 18:22:00,54.0,43.0,-100.00,South,187,3.0,11.0,67,0.01,,,0.03,,2013-05-17 00:22:00,
2013-05-16 18:33:00,54.0,43.0,-100.00,South,187,3.0,11.0,67,0.01,,,0.03,,2013-05-17 00:33:00,
2013-05-16 18:43:00,54.0,43.0,-100.00,South,187,3.0,11.0,67,0.01,,,0.03,,2013-05-17 00:43:00,
2013-05-16 18:51:00,51.0,48.0,-100.00,East,89,2.0,5.0,89,0.03,,,0.06,,2013-05-17 00:51:00,
2013-05-16 19:12:00,51.0,48.0,-100.00,East,89,2.0,5.0,89,0.03,,,0.06,,2013-05-17 01:12:00,
2013-05-16 19:23:00,51.0,48.0,-100.00,East,89,2.0,5.0,89,0.03,,,0.06,,2013-05-17 01:23:00,
2013-05-16 19:32:00,51.0,48.0,-100.00,East,89,2.0,5.0,89,0.03,,,0.06,,2013-05-17 01:32:00,
2013-05-16 19:43:00,51.0,48.0,-100.00,East,89,2.0,5.0,89,0.03,,,0.06,,2013-05-17 01:43:00,
2013-05-16 19:51:00,50.0,47.0,-100.00,SSE,164,2.0,9.0,91,0.01,,,0.07,,2013-05-17 01:51:00,
2013-05-16 20:11:00,50.0,47.0,-100.00,SSE,164,2.0,9.0,91,0.01,,,0.07,,2013-05-17 02:11:00,
2013-05-16 20:21:00,50.0,47.0,-100.00,SSE,164,2.0,9.0,91,0.01,,,0.07,,2013-05-17 02:21:00,
2013-05-16 20:32:00,50.0,47.0,-100.00,SSE,164,2.0,9.0,91,0.01,,,0.07,,2013-05-17 02:32:00,
2013-05-16 20:41:00,50.0,47.0,-100.00,SSE,164,2.0,9.0,91,0.01,,,0.07,,2013-05-17 02:41:00,
2013-05-16 20:51:00,49.0,46.0,-100.00,East,94,4.0,7.0,91,0.00,,,0.07,,2013-05-17 02:51:00,
2013-05-16 21:22:00,49.0,46.0,-100.00,East,94,4.0,7.0,91,0.00,,,0.07,,2013-05-17 03:22:00,
2013-05-16 21:34:00,49.0,46.0,-100.00,East,94,4.0,7.0,91,0.00,,,0.07,,2013-05-17 03:34:00,
2013-05-16 21:43:00,49.0,46.0,-100.00,East,94,4.0,7.0,91,0.00,,,0.07,,2013-05-17 03:43:00,
2013-05-16 21:51:00,48.0,47.0,-100.00,ESE,117,1.0,4.0,96,0.01,,,0.08,,2013-05-17 03:51:00,
2013-05-16 22:13:00,48.0,47.0,-100.00,ESE,117,1.0,4.0,96,0.01,,,0.08,,2013-05-17 04:13:00,
2013-05-16 22:23:00,48.0,47.0,-100.00,ESE,117,1.0,4.0,96,0.01,,,0.08,,2013-05-17 04:23:00,
2013-05-16 22:33:00,48.0,47.0,-100.00,ESE,117,1.0,4.0,96,0.01,,,0.08,,2013-05-17 04:33:00,
2013-05-16 22:43:00,48.0,47.0,-100.00,ESE,117,1.0,4.0,96,0.01,,,0.08,,2013-05-17 04:43:00,
2013-05-16 22:51:00,47.0,46.0,-100.00,ENE,66,2.0,8.0,96,0.01,,,0.09,,2013-05-17 04:51:00,
2013-05-16 23:14:00,47.0,46.0,-100.00,ENE,66,2.0,8.0,96,0.01,,,0.09,,2013-05-17 05:14:00,
2013-05-16 23:22:00,47.0,46.0,-100.00,ENE,66,2.0,8.0,96,0.01,,,0.09,,2013-05-17 05:22:00,
2013-05-16 23:32:00,47.0,46.0,-100.00,ENE,66,2.0,8.0,96,0.01,,,0.09,,2013-05-17 05:32:00,
2013-05-16 23:42:00,47.0,46.0,-100.00,ENE,66,2.0,8.0,96,0.01,,,0.09,,2013-05-17 05:42:00,
2013-05-16 23:51:00,48.0,48.0,-100.00,SW,218,3.0,4.0,99,0.02,,,0.11,,2013-05-17 05:51:00,